Time;durP1;ratioP1;P1;durP2;ratioP2;P2;SDS_P1;SDS_P2;PMS_P1;PMS_P2;Temp;Humidity;BMP_temperature;BMP_pressure;BME280_temperature;BME280_humidity;BME280_pressure;Samples;Min_cycle;Max_cycle;Signal;HPM_P1;HPM_P2
2024/02/27 00:02:18;;;;;;;;;;;;;;;5.18;59.77;96358.47;7397142;19;1872;-69
2024/02/27 00:04:47;;;;;;;;;;;;;;;5.11;59.50;96354.25;7397817;19;1013;-64
2024/02/27 00:07:15;;;;;;;;;;;;;;;4.96;59.44;96352.84;7397579;19;1922;-68
2024/02/27 00:09:45;;;;;;;;;;;;;;;4.96;59.82;96353.69;7397342;19;2023;-69
2024/02/27 00:12:15;;;;;;;;;;;;;;;4.95;59.70;96354.56;7397075;19;1032;-66
2024/02/27 00:14:43;;;;;;;;;;;;;;;4.92;59.70;96360.69;7397424;19;1001;-70
2024/02/27 00:17:12;;;;;;;;;;;;;;;4.73;60.10;96357.53;7397256;19;1892;-69
2024/02/27 00:19:43;;;;;;;;;;;;;;;4.65;61.16;96362.88;7397362;19;1044;-71
2024/02/27 00:22:11;;;;;;;;;;;;;;;4.55;61.50;96356.97;7396233;19;1861;-70
2024/02/27 00:24:40;;;;;;;;;;;;;;;4.52;61.66;96357.03;7396713;19;1055;-69
2024/02/27 00:27:09;;;;;;;;;;;;;;;4.46;62.45;96357.16;7397179;19;949;-69
2024/02/27 00:29:37;;;;;;;;;;;;;;;4.47;62.37;96353.66;7396885;19;1819;-66
2024/02/27 00:32:06;;;;;;;;;;;;;;;4.43;62.43;96357.19;7396825;19;1907;-72
2024/02/27 00:34:35;;;;;;;;;;;;;;;4.42;62.63;96351.16;7396935;19;1016;-66
2024/02/27 00:37:06;;;;;;;;;;;;;;;4.42;62.75;96345.09;7396536;19;1020;-73
2024/02/27 00:39:35;;;;;;;;;;;;;;;4.43;63.27;96344.25;7396411;19;1100;-72
2024/02/27 00:42:04;;;;;;;;;;;;;;;4.46;63.35;96341.59;7401721;19;1849;-74
2024/02/27 00:44:32;;;;;;;;;;;;;;;4.37;63.39;96340.00;7401412;19;1108;-67
2024/02/27 00:47:01;;;;;;;;;;;;;;;4.32;64.00;96343.56;7403772;19;1107;-65
2024/02/27 00:49:29;;;;;;;;;;;;;;;4.25;64.60;96342.81;7404399;19;1656;-65
2024/02/27 00:51:58;;;;;;;;;;;;;;;4.30;64.85;96344.44;7403857;19;1851;-71
2024/02/27 00:54:29;;;;;;;;;;;;;;;4.30;64.74;96340.97;7403483;19;1009;-71
2024/02/27 00:56:58;;;;;;;;;;;;;;;4.34;64.21;96350.44;7403451;19;1021;-72
2024/02/27 00:59:26;;;;;;;;;;;;;;;4.32;64.29;96347.00;7404050;19;1660;-71
2024/02/27 01:01:54;;;;;;;;;;;;;;;4.26;64.40;96349.69;7403370;19;1852;-69
2024/02/27 01:04:23;;;;;;;;;;;;;;;4.16;64.36;96346.41;7403304;19;1053;-74
2024/02/27 01:06:51;;;;;;;;;;;;;;;4.13;64.69;96349.88;7403306;19;1119;-65
2024/02/27 01:09:20;;;;;;;;;;;;;;;4.03;65.04;96350.88;7403822;19;1759;-67
2024/02/27 01:11:51;;;;;;;;;;;;;;;3.98;64.96;96348.41;7403015;19;1036;-76
2024/02/27 01:14:20;;;;;;;;;;;;;;;3.92;65.23;96351.06;7402924;19;1064;-64
2024/02/27 01:16:48;;;;;;;;;;;;;;;3.87;65.33;96351.13;7403603;19;1767;-71
2024/02/27 01:19:17;;;;;;;;;;;;;;;3.82;65.50;96354.66;7402671;19;1123;-70
2024/02/27 01:21:45;;;;;;;;;;;;;;;3.75;65.66;96346.13;7403144;19;1032;-72
2024/02/27 01:24:14;;;;;;;;;;;;;;;3.70;66.33;96348.75;7400590;19;1849;-72
2024/02/27 01:26:42;;;;;;;;;;;;;;;3.69;66.67;96344.47;7403019;19;1016;-69
2024/02/27 01:29:13;;;;;;;;;;;;;;;3.61;66.93;96344.56;7402755;19;1024;-75
2024/02/27 01:31:42;;;;;;;;;;;;;;;3.60;67.23;96344.59;7402809;19;957;-69
2024/02/27 01:34:11;;;;;;;;;;;;;;;3.57;68.10;96350.66;7402197;19;1048;-72
2024/02/27 01:36:37;;;;;;;;;;;;;;;3.50;68.61;96344.75;7402285;19;940;-75
2024/02/27 01:39:07;;;;;;;;;;;;;;;3.44;69.15;96352.56;7402548;19;1127;-68
2024/02/27 01:41:37;;;;;;;;;;;;;;;3.42;68.75;96351.72;7402063;19;1079;-72
2024/02/27 01:44:05;;;;;;;;;;;;;;;3.38;68.96;96347.47;7399572;19;1910;-72
2024/02/27 01:46:36;;;;;;;;;;;;;;;3.35;69.63;96343.19;7401839;19;1257;-75
2024/02/27 01:49:05;;;;;;;;;;;;;;;3.35;69.28;96338.03;7401750;19;1056;-67
2024/02/27 01:51:34;;;;;;;;;;;;;;;3.31;69.31;96338.91;7401498;19;1814;-74
2024/02/27 01:54:04;;;;;;;;;;;;;;;3.28;69.42;96336.38;7401947;19;1781;-72
2024/02/27 01:56:33;;;;;;;;;;;;;;;3.28;69.79;96337.22;7401644;19;1087;-69
2024/02/27 01:59:01;;;;;;;;;;;;;;;3.31;69.66;96330.31;7401486;19;1036;-71
2024/02/27 02:01:30;;;;;;;;;;;;;;;3.32;70.38;96345.81;7401741;19;1805;-74
2024/02/27 02:04:02;;;;;;;;;;;;;;;3.32;70.42;96334.63;7399834;19;1841;-73
2024/02/27 02:06:31;;;;;;;;;;;;;;;3.34;70.52;96338.88;7401356;19;1075;-66
2024/02/27 02:09:00;;;;;;;;;;;;;;;3.38;70.02;96334.53;7401940;19;1816;-72
2024/02/27 02:11:28;;;;;;;;;;;;;;;3.37;70.19;96338.00;7401863;19;1065;-70
2024/02/27 02:13:57;;;;;;;;;;;;;;;3.25;70.34;96336.44;7401368;19;977;-72
2024/02/27 02:16:26;;;;;;;;;;;;;;;3.22;70.76;96345.06;7401141;19;1945;-71
2024/02/27 02:18:56;;;;;;;;;;;;;;;3.22;70.89;96342.47;7401220;19;961;-75
2024/02/27 02:21:27;;;;;;;;;;;;;;;3.20;71.34;96345.97;7400771;19;1041;-72
2024/02/27 02:23:56;;;;;;;;;;;;;;;3.20;71.42;96351.13;7399373;19;1845;-70
2024/02/27 02:26:27;;;;;;;;;;;;;;;3.26;72.03;96348.47;7400970;19;1903;-62
2024/02/27 02:28:55;;;;;;;;;;;;;;;3.21;72.34;96343.34;7400444;19;1189;-73
2024/02/27 02:31:24;;;;;;;;;;;;;;;3.15;72.62;96346.00;7400724;19;1805;-71
2024/02/27 02:33:52;;;;;;;;;;;;;;;3.18;72.80;96348.56;7400626;19;1814;-68
2024/02/27 02:36:21;;;;;;;;;;;;;;;3.25;72.98;96345.03;7400487;19;1912;-71
2024/02/27 02:38:52;;;;;;;;;;;;;;;3.23;73.66;96346.78;7400590;19;1037;-67
2024/02/27 02:41:20;;;;;;;;;;;;;;;3.20;74.84;96354.59;7400058;19;1021;-67
2024/02/27 02:43:48;;;;;;;;;;;;;;;3.20;75.09;96353.72;7398617;19;1858;-69
2024/02/27 02:46:17;;;;;;;;;;;;;;;3.18;75.96;96355.44;7400408;19;1012;-70
2024/02/27 02:48:45;;;;;;;;;;;;;;;3.22;77.32;96350.22;7399867;19;1837;-70
2024/02/27 02:51:14;;;;;;;;;;;;;;;3.26;76.19;96349.34;7399809;19;1146;-68
2024/02/27 02:53:42;;;;;;;;;;;;;;;3.29;76.14;96356.19;7400020;19;1025;-64
2024/02/27 02:56:13;;;;;;;;;;;;;;;3.36;75.96;96350.06;7399823;19;1776;-72
2024/02/27 02:58:42;;;;;;;;;;;;;;;3.37;76.06;96350.94;7399336;19;1100;-67
2024/02/27 03:01:10;;;;;;;;;;;;;;;3.33;76.66;96351.84;7399214;19;1052;-70
2024/02/27 03:03:38;;;;;;;;;;;;;;;3.37;77.68;96353.53;7396787;19;1849;-74
2024/02/27 03:06:07;;;;;;;;;;;;;;;3.41;77.81;96353.44;7399519;19;1106;-69
2024/02/27 03:08:35;;;;;;;;;;;;;;;3.44;77.72;96359.47;7399519;19;1744;-69
2024/02/27 03:11:04;;;;;;;;;;;;;;;3.47;77.64;96360.28;7399199;19;1138;-69
2024/02/27 03:13:35;;;;;;;;;;;;;;;3.51;76.61;96354.19;7398947;19;1954;-68
2024/02/27 03:16:04;;;;;;;;;;;;;;;3.50;76.25;96360.25;7398912;19;1127;-69
2024/02/27 03:18:32;;;;;;;;;;;;;;;3.41;76.60;96360.38;7399544;19;1768;-69
2024/02/27 03:21:01;;;;;;;;;;;;;;;3.39;77.42;96362.09;7399138;19;1014;-77
2024/02/27 03:23:29;;;;;;;;;;;;;;;3.30;76.85;96357.91;7397726;19;1842;-69
2024/02/27 03:25:58;;;;;;;;;;;;;;;3.27;76.27;96363.97;7399341;19;1678;-72
2024/02/27 03:28:26;;;;;;;;;;;;;;;3.23;76.01;96361.44;7398516;19;1052;-75
2024/02/27 03:30:57;;;;;;;;;;;;;;;3.13;76.42;96368.47;7398772;19;1794;-70
2024/02/27 03:33:25;;;;;;;;;;;;;;;3.09;76.34;96357.28;7398320;19;1064;-74
2024/02/27 03:35:54;;;;;;;;;;;;;;;3.02;76.73;96363.41;7398645;19;1946;-68
2024/02/27 03:38:22;;;;;;;;;;;;;;;2.99;77.24;96361.72;7398551;19;1651;-75
2024/02/27 03:43:46;;;;;;;;;;;;;;;3.05;78.13;96365.94;7396487;19;1837;-70
2024/02/27 03:46:17;;;;;;;;;;;;;;;3.09;77.98;96361.59;7398320;19;1039;-70
2024/02/27 03:48:46;;;;;;;;;;;;;;;3.12;77.74;96370.19;7398227;19;1012;-73
2024/02/27 03:51:14;;;;;;;;;;;;;;;3.09;78.13;96372.78;7397692;19;1065;-75
2024/02/27 03:53:43;;;;;;;;;;;;;;;3.12;78.04;96371.88;7397706;19;1076;-70
2024/02/27 03:56:11;;;;;;;;;;;;;;;3.08;78.26;96371.09;7397620;19;1107;-74
2024/02/27 03:58:40;;;;;;;;;;;;;;;3.05;78.90;96371.13;7397538;19;1040;-67
2024/02/27 04:01:08;;;;;;;;;;;;;;;3.07;79.36;96378.84;7397625;19;1789;-77
2024/02/27 04:03:39;;;;;;;;;;;;;;;3.08;79.14;96373.66;7396551;19;1834;-68
2024/02/27 04:06:08;;;;;;;;;;;;;;;3.15;78.77;96374.44;7397632;19;1031;-68
2024/02/27 04:08:36;;;;;;;;;;;;;;;3.16;78.77;96374.44;7397083;19;1044;-66
2024/02/27 04:11:05;;;;;;;;;;;;;;;3.18;79.01;96376.13;7397530;19;1809;-67
2024/02/27 04:13:33;;;;;;;;;;;;;;;3.22;78.48;96377.84;7397294;19;1884;-68
2024/02/27 04:16:02;;;;;;;;;;;;;;;3.26;78.34;96380.38;7395695;19;1694;-72
2024/02/27 04:18:30;;;;;;;;;;;;;;;3.31;77.72;96382.03;7396890;19;1829;-65
2024/02/27 04:21:03;;;;;;;;;;;;;;;3.32;77.83;96389.78;7396972;19;2145;-72
2024/02/27 04:23:32;;;;;;;;;;;;;;;3.37;77.51;96387.16;7396114;19;1842;-69
2024/02/27 04:26:02;;;;;;;;;;;;;;;3.38;77.14;96394.88;7396751;19;1052;-64
2024/02/27 04:28:30;;;;;;;;;;;;;;;3.37;76.89;96400.91;7396557;19;1123;-68
2024/02/27 04:30:59;;;;;;;;;;;;;;;3.35;76.57;96407.84;7396918;19;1008;-68
2024/02/27 04:33:27;;;;;;;;;;;;;;;3.15;76.61;96402.88;7396816;19;1813;-68
2024/02/27 04:35:56;;;;;;;;;;;;;;;3.12;75.88;96400.31;7396752;19;1797;-70
2024/02/27 04:38:27;;;;;;;;;;;;;;;3.10;75.75;96402.09;7396776;19;970;-68
2024/02/27 04:40:55;;;;;;;;;;;;;;;3.07;75.32;96400.38;7396796;19;1000;-70
2024/02/27 04:43:24;;;;;;;;;;;;;;;3.03;75.19;96399.56;7395241;19;1867;-69
2024/02/27 04:45:52;;;;;;;;;;;;;;;3.02;75.15;96404.75;7396139;19;1137;-73
2024/02/27 04:48:21;;;;;;;;;;;;;;;2.95;74.58;96405.69;7396067;19;1064;-73
2024/02/27 04:50:49;;;;;;;;;;;;;;;2.90;74.69;96408.31;7396671;19;1052;-71
2024/02/27 04:53:18;;;;;;;;;;;;;;;2.83;74.56;96419.56;7396211;19;1091;-66
2024/02/27 04:55:49;;;;;;;;;;;;;;;2.75;74.63;96420.50;7396392;19;1914;-71
2024/02/27 04:58:18;;;;;;;;;;;;;;;2.68;74.62;96412.81;7395962;19;1973;-70
2024/02/27 05:00:46;;;;;;;;;;;;;;;2.61;74.53;96415.44;7396343;19;2090;-70
2024/02/27 05:03:15;;;;;;;;;;;;;;;2.59;74.99;96424.09;7395848;19;1850;-71
2024/02/27 05:05:43;;;;;;;;;;;;;;;2.61;75.16;96418.03;7395747;19;1055;-71
2024/02/27 05:08:12;;;;;;;;;;;;;;;2.59;74.72;96424.09;7395616;19;1099;-70
2024/02/27 05:10:41;;;;;;;;;;;;;;;2.55;74.09;96427.53;7395616;19;1115;-68
2024/02/27 05:13:12;;;;;;;;;;;;;;;2.57;74.29;96426.69;7395782;19;1915;-72
2024/02/27 05:15:40;;;;;;;;;;;;;;;2.59;74.23;96435.25;7395993;19;937;-73
2024/02/27 05:18:09;;;;;;;;;;;;;;;2.62;73.81;96436.97;7396170;19;1783;-70
2024/02/27 05:20:38;;;;;;;;;;;;;;;2.66;73.52;96443.81;7396121;19;1732;-69
2024/02/27 05:23:06;;;;;;;;;;;;;;;2.65;73.50;96439.53;7395521;19;1771;-63
2024/02/27 05:25:35;;;;;;;;;;;;;;;2.68;73.25;96447.22;7393513;19;1842;-71
2024/02/27 05:28:03;;;;;;;;;;;;;;;2.73;73.34;96447.19;7400875;19;1884;-72
2024/02/27 05:30:35;;;;;;;;;;;;;;;2.82;73.46;96446.25;7402927;19;1032;-71
2024/02/27 05:33:04;;;;;;;;;;;;;;;2.92;73.04;96447.91;7402794;19;1005;-70
2024/02/27 05:35:32;;;;;;;;;;;;;;;3.00;72.94;96458.16;7402644;19;1025;-66
2024/02/27 05:38:01;;;;;;;;;;;;;;;2.99;72.27;96461.63;7401899;19;1107;-65
2024/02/27 05:40:29;;;;;;;;;;;;;;;3.07;71.78;96457.25;7402315;19;1899;-67
2024/02/27 05:42:58;;;;;;;;;;;;;;;3.75;72.36;96463.44;7401686;19;1100;-72
2024/02/27 05:45:27;;;;;;;;;;;;;;;4.71;68.07;96467.28;7399537;19;1853;-69
2024/02/27 05:48:01;;;;;;;;;;;;;;;5.41;64.26;96476.50;7399262;19;1108;-74
2024/02/27 05:50:29;;;;;;;;;;;;;;;5.92;62.20;96482.44;7402197;19;945;-75
2024/02/27 05:52:57;;;;;;;;;;;;;;;6.17;61.86;96488.00;7402126;19;981;-66
2024/02/27 05:55:26;;;;;;;;;;;;;;;6.70;59.98;96499.00;7402089;19;1895;-76
2024/02/27 05:57:55;;;;;;;;;;;;;;;7.79;57.74;96496.28;7402007;19;1017;-68
2024/02/27 06:00:23;;;;;;;;;;;;;;;9.03;53.34;96503.94;7402261;19;1666;-75
2024/02/27 06:02:52;;;;;;;;;;;;;;;10.07;50.68;96515.25;7401822;19;1031;-63
2024/02/27 06:05:23;;;;;;;;;;;;;;;11.01;48.34;96516.13;7399776;19;1846;-67
2024/02/27 06:07:52;;;;;;;;;;;;;;;10.79;49.18;96530.06;7401647;19;1009;-76
2024/02/27 06:10:21;;;;;;;;;;;;;;;9.96;51.31;96515.63;7401182;19;1135;-70
2024/02/27 06:12:50;;;;;;;;;;;;;;;9.54;53.00;96524.91;7401465;19;1013;-70
2024/02/27 06:15:19;;;;;;;;;;;;;;;9.17;54.16;96521.78;7401439;19;1778;-69
2024/02/27 06:17:47;;;;;;;;;;;;;;;9.10;55.20;96523.72;7400976;19;1235;-77
2024/02/27 06:22:59;;;;;;;;;;;;;;;10.23;53.80;96535.56;7398535;19;882;-72
2024/02/27 06:25:28;;;;;;;;;;;;;;;11.57;50.15;96540.91;7398842;19;1902;-72
2024/02/27 06:27:56;;;;;;;;;;;;;;;12.69;46.86;96547.44;7401181;19;953;-69
2024/02/27 06:30:25;;;;;;;;;;;;;;;13.51;45.36;96553.22;7400872;19;1924;-70
2024/02/27 06:32:53;;;;;;;;;;;;;;;14.28;44.34;96552.84;7400479;19;1005;-71
2024/02/27 06:35:24;;;;;;;;;;;;;;;14.52;43.90;96541.94;7400357;19;1052;-68
2024/02/27 06:37:52;;;;;;;;;;;;;;;14.48;43.87;96548.31;7399057;19;1037;-70
2024/02/27 06:40:24;;;;;;;;;;;;;;;14.08;44.16;96552.09;7399259;19;1100;-76
2024/02/27 06:42:52;;;;;;;;;;;;;;;13.52;45.45;96555.75;7399650;19;1062;-65
2024/02/27 06:45:21;;;;;;;;;;;;;;;12.34;48.14;96558.63;7398445;19;1861;-69
2024/02/27 06:47:50;;;;;;;;;;;;;;;12.14;49.75;96565.63;7399955;19;1064;-76
2024/02/27 06:50:18;;;;;;;;;;;;;;;11.90;50.45;96570.97;7400321;19;1068;-70
2024/02/27 06:52:47;;;;;;;;;;;;;;;11.14;52.79;96574.94;7400058;19;1711;-72
2024/02/27 06:55:15;;;;;;;;;;;;;;;10.51;54.11;96579.06;7399668;19;1052;-73
2024/02/27 06:57:47;;;;;;;;;;;;;;;10.41;55.42;96577.66;7399828;19;1804;-70
2024/02/27 07:00:15;;;;;;;;;;;;;;;10.80;54.70;96578.84;7399529;19;1096;-73
2024/02/27 07:02:44;;;;;;;;;;;;;;;11.53;53.53;96585.63;7399339;19;1100;-74
2024/02/27 07:05:12;;;;;;;;;;;;;;;12.06;52.65;96580.78;7398512;19;1845;-72
2024/02/27 07:07:41;;;;;;;;;;;;;;;12.06;51.85;96586.03;7399711;19;1012;-74
2024/02/27 07:10:12;;;;;;;;;;;;;;;11.93;52.56;96593.56;7399224;19;1121;-70
2024/02/27 07:12:43;;;;;;;;;;;;;;;11.83;52.33;96598.38;7399076;19;1103;-69
2024/02/27 07:15:14;;;;;;;;;;;;;;;11.15;54.40;96607.19;7399077;19;1016;-66
2024/02/27 07:17:42;;;;;;;;;;;;;;;10.78;55.56;96602.47;7398995;19;1404;-69
2024/02/27 07:20:12;;;;;;;;;;;;;;;10.23;57.58;96598.31;7399338;19;1019;-75
2024/02/27 07:22:40;;;;;;;;;;;;;;;10.05;59.33;96603.28;7399151;19;946;-73
2024/02/27 07:25:09;;;;;;;;;;;;;;;9.86;61.36;96603.94;7398129;19;1837;-74
2024/02/27 07:27:38;;;;;;;;;;;;;;;10.15;60.97;96601.22;7398855;19;1805;-67
2024/02/27 07:30:07;;;;;;;;;;;;;;;11.24;57.98;96612.94;7398885;19;1986;-64
2024/02/27 07:32:38;;;;;;;;;;;;;;;12.37;54.00;96609.19;7398911;19;1817;-67
2024/02/27 07:35:07;;;;;;;;;;;;;;;13.49;50.78;96613.72;7398545;19;1127;-70
2024/02/27 07:37:36;;;;;;;;;;;;;;;14.36;48.53;96620.88;7398711;19;1893;-67
2024/02/27 07:40:05;;;;;;;;;;;;;;;14.95;46.91;96622.19;7398860;19;1027;-67
2024/02/27 07:42:35;;;;;;;;;;;;;;;15.74;45.18;96630.97;7398462;19;1356;-68
2024/02/27 07:45:03;;;;;;;;;;;;;;;16.39;43.33;96623.75;7397241;19;1846;-71
2024/02/27 07:47:31;;;;;;;;;;;;;;;15.68;44.22;96631.31;7397911;19;1052;-66
2024/02/27 07:50:03;;;;;;;;;;;;;;;15.75;44.44;96635.31;7397498;19;1774;-67
2024/02/27 07:52:32;;;;;;;;;;;;;;;16.27;43.32;96632.38;7398151;19;1042;-65
2024/02/27 07:55:00;;;;;;;;;;;;;;;16.39;42.97;96628.16;7398008;19;1012;-68
2024/02/27 07:57:29;;;;;;;;;;;;;;;16.00;43.94;96622.53;7398178;19;1119;-69
2024/02/27 07:59:57;;;;;;;;;;;;;;;16.37;43.14;96617.69;7397905;19;1914;-74
2024/02/27 08:02:26;;;;;;;;;;;;;;;16.62;43.03;96620.63;7398258;19;989;-68
2024/02/27 08:04:54;;;;;;;;;;;;;;;16.66;43.06;96614.22;7396716;19;1850;-76
2024/02/27 08:07:25;;;;;;;;;;;;;;;16.67;42.57;96613.25;7397769;19;1046;-71
2024/02/27 08:09:54;;;;;;;;;;;;;;;15.75;44.54;96616.84;7397297;19;1123;-71
2024/02/27 08:12:23;;;;;;;;;;;;;;;15.20;46.90;96616.41;7397193;19;1136;-71
2024/02/27 08:14:51;;;;;;;;;;;;;;;14.87;47.45;96614.72;7397613;19;1063;-67
2024/02/27 08:17:20;;;;;;;;;;;;;;;14.47;49.08;96610.59;7397376;19;1815;-74
2024/02/27 08:19:48;;;;;;;;;;;;;;;14.66;48.23;96613.13;7397823;19;1638;-69
2024/02/27 08:22:17;;;;;;;;;;;;;;;14.45;48.21;96607.19;7397660;19;1674;-71
2024/02/27 08:24:48;;;;;;;;;;;;;;;14.09;50.71;96605.56;7396302;19;1861;-71
2024/02/27 08:27:16;;;;;;;;;;;;;;;13.79;51.14;96603.56;7396848;19;1131;-71
2024/02/27 08:29:45;;;;;;;;;;;;;;;14.22;49.82;96606.66;7397001;19;871;-71
2024/02/27 08:32:13;;;;;;;;;;;;;;;14.28;50.29;96605.47;7396771;19;1112;-68
2024/02/27 08:34:42;;;;;;;;;;;;;;;14.48;48.67;96611.47;7397436;19;1660;-67
2024/02/27 08:37:11;;;;;;;;;;;;;;;14.59;49.27;96602.97;7397096;19;956;-74
2024/02/27 08:39:39;;;;;;;;;;;;;;;14.57;49.58;96604.88;7396984;19;1051;-73
2024/02/27 08:42:10;;;;;;;;;;;;;;;14.61;49.86;96604.63;7396727;19;1972;-68
2024/02/27 08:44:39;;;;;;;;;;;;;;;14.57;48.96;96607.50;7395059;19;1861;-73
2024/02/27 08:47:07;;;;;;;;;;;;;;;14.39;49.67;96604.91;7396527;19;1902;-72
2024/02/27 08:49:36;;;;;;;;;;;;;;;14.18;48.30;96609.50;7396180;19;1079;-73
2024/02/27 08:52:04;;;;;;;;;;;;;;;14.17;50.63;96600.75;7396521;19;1173;-69
2024/02/27 08:54:33;;;;;;;;;;;;;;;14.40;48.73;96594.31;7396865;19;1771;-72
2024/02/27 08:57:01;;;;;;;;;;;;;;;14.77;47.58;96606.41;7396477;19;1096;-68
2024/02/27 08:59:33;;;;;;;;;;;;;;;14.57;48.71;96603.06;7396499;19;1031;-70
2024/02/27 09:02:02;;;;;;;;;;;;;;;14.86;48.59;96607.72;7398721;19;1016;-69
2024/02/27 09:04:32;;;;;;;;;;;;;;;14.94;47.57;96605.53;7403761;19;1850;-67
2024/02/27 09:07:00;;;;;;;;;;;;;;;14.77;48.53;96607.28;7403263;19;1005;-69
2024/02/27 09:09:29;;;;;;;;;;;;;;;14.79;48.52;96615.13;7403768;19;1059;-72
2024/02/27 09:11:57;;;;;;;;;;;;;;;14.68;48.81;96617.44;7403554;19;1083;-73
2024/02/27 09:14:26;;;;;;;;;;;;;;;14.51;50.35;96614.78;7403837;19;1751;-67
2024/02/27 09:16:57;;;;;;;;;;;;;;;14.72;49.44;96611.94;7403156;19;1885;-71
2024/02/27 09:19:26;;;;;;;;;;;;;;;14.81;48.94;96620.31;7402862;19;993;-69
2024/02/27 09:21:54;;;;;;;;;;;;;;;14.95;48.45;96614.28;7403055;19;1800;-72
2024/02/27 09:24:23;;;;;;;;;;;;;;;15.16;48.02;96622.78;7402989;19;1593;-74
2024/02/27 09:26:52;;;;;;;;;;;;;;;15.18;47.42;96614.81;7399795;19;1846;-69
2024/02/27 09:29:20;;;;;;;;;;;;;;;15.09;47.18;96616.16;7402900;19;1780;-73
2024/02/27 09:31:49;;;;;;;;;;;;;;;15.07;47.71;96624.16;7403040;19;1201;-70
2024/02/27 09:34:20;;;;;;;;;;;;;;;15.13;48.34;96622.97;7402556;19;1959;-68
2024/02/27 09:36:48;;;;;;;;;;;;;;;15.25;47.69;96618.78;7402332;19;1092;-68
2024/02/27 09:39:17;;;;;;;;;;;;;;;15.20;48.28;96619.03;7402513;19;1045;-72
2024/02/27 09:41:51;;;;;;;;;;;;;;;15.37;48.83;96614.63;7402439;19;1920;-68
2024/02/27 09:44:20;;;;;;;;;;;;;;;15.36;47.98;96619.06;7400364;19;1836;-72
2024/02/27 09:46:49;;;;;;;;;;;;;;;15.35;47.68;96619.97;7400252;19;1845;-75
2024/02/27 09:49:21;;;;;;;;;;;;;;;15.06;48.81;96616.34;7402099;19;1000;-71
2024/02/27 09:51:51;;;;;;;;;;;;;;;15.23;48.45;96618.03;7401914;19;1099;-68
2024/02/27 09:54:20;;;;;;;;;;;;;;;15.14;48.53;96607.06;7401864;19;1036;-66
2024/02/27 09:56:48;;;;;;;;;;;;;;;15.11;48.74;96614.31;7402120;19;1943;-67
2024/02/27 09:59:17;;;;;;;;;;;;;;;15.06;50.11;96609.28;7402087;19;1024;-73
2024/02/27 10:01:47;;;;;;;;;;;;;;;15.18;48.95;96613.03;7402008;19;1021;-71
2024/02/27 10:04:16;;;;;;;;;;;;;;;15.31;47.68;96618.47;7401496;19;1108;-75
2024/02/27 10:06:49;;;;;;;;;;;;;;;15.26;49.29;96620.50;7399284;19;1917;-67
2024/02/27 10:09:19;;;;;;;;;;;;;;;15.32;48.42;96620.16;7401282;19;1505;-73
2024/02/27 10:11:49;;;;;;;;;;;;;;;15.41;48.30;96616.13;7401223;19;1073;-70
2024/02/27 10:14:23;;;;;;;;;;;;;;;15.08;49.61;96611.84;7400867;19;1056;-69
2024/02/27 10:16:52;;;;;;;;;;;;;;;15.32;49.20;96614.06;7401643;19;977;-68
2024/02/27 10:19:21;;;;;;;;;;;;;;;15.41;48.71;96608.22;7401033;19;1017;-66
2024/02/27 10:21:54;;;;;;;;;;;;;;;15.46;47.35;96610.63;7400853;19;1128;-73
2024/02/27 10:24:23;;;;;;;;;;;;;;;15.44;49.03;96605.44;7400892;19;1103;-63
2024/02/27 10:26:55;;;;;;;;;;;;;;;15.42;48.88;96602.03;7398832;19;1830;-70
2024/02/27 10:29:25;;;;;;;;;;;;;;;15.40;47.88;96594.22;7401021;19;827;-69
2024/02/27 10:31:54;;;;;;;;;;;;;;;15.56;47.35;96601.25;7400911;19;1915;-68
2024/02/27 10:34:24;;;;;;;;;;;;;;;15.76;46.93;96597.47;7401059;19;1051;-67
2024/02/27 10:37:02;;;;;;;;;;;;;;;15.99;46.54;96607.66;7400833;19;1009;-67
2024/02/27 10:39:31;;;;;;;;;;;;;;;15.91;46.60;96592.22;7400258;19;1072;-70
2024/02/27 10:42:00;;;;;;;;;;;;;;;16.06;45.65;96597.56;7400181;19;1100;-69
2024/02/27 10:44:29;;;;;;;;;;;;;;;16.12;45.86;96584.00;7398541;19;1106;-71
2024/02/27 10:46:58;;;;;;;;;;;;;;;16.08;45.68;96590.41;7398211;19;1834;-64
2024/02/27 10:49:27;;;;;;;;;;;;;;;16.19;45.89;96585.34;7400561;19;1060;-68
2024/02/27 10:51:57;;;;;;;;;;;;;;;16.35;45.26;96579.16;7399983;19;1076;-76
2024/02/27 10:54:28;;;;;;;;;;;;;;;16.44;44.60;96581.22;7399860;19;1100;-75
2024/02/27 10:56:59;;;;;;;;;;;;;;;16.49;44.85;96586.19;7400293;19;930;-66
2024/02/27 10:59:28;;;;;;;;;;;;;;;16.33;45.57;96581.88;7399723;19;1028;-72
2024/02/27 11:01:58;;;;;;;;;;;;;;;16.28;46.18;96590.06;7399612;19;1852;-73
2024/02/27 11:04:28;;;;;;;;;;;;;;;16.28;45.65;96595.34;7399551;19;1067;-71
2024/02/27 11:06:56;;;;;;;;;;;;;;;16.37;45.76;96580.72;7398340;19;1846;-73
2024/02/27 11:09:29;;;;;;;;;;;;;;;16.25;46.00;96584.09;7399366;19;1083;-68
2024/02/27 11:11:58;;;;;;;;;;;;;;;16.19;46.97;96574.78;7399317;19;1024;-68
2024/02/27 11:14:27;;;;;;;;;;;;;;;16.27;45.74;96579.59;7399637;19;1908;-67
2024/02/27 11:16:59;;;;;;;;;;;;;;;16.41;45.80;96571.69;7399489;19;1827;-68
2024/02/27 11:19:29;;;;;;;;;;;;;;;16.41;45.67;96570.84;7399081;19;1048;-66
2024/02/27 11:21:58;;;;;;;;;;;;;;;16.49;45.76;96571.22;7398985;19;953;-75
2024/02/27 11:24:29;;;;;;;;;;;;;;;16.63;45.17;96569.50;7398285;19;932;-72
2024/02/27 11:26:58;;;;;;;;;;;;;;;16.66;45.70;96566.69;7397397;19;1852;-67
2024/02/27 11:29:27;;;;;;;;;;;;;;;16.63;45.96;96572.16;7398972;19;1820;-68
2024/02/27 11:31:56;;;;;;;;;;;;;;;16.61;45.25;96568.75;7398755;19;1809;-71
2024/02/27 11:34:25;;;;;;;;;;;;;;;16.70;44.91;96567.34;7398811;19;1012;-72
2024/02/27 11:37:09;;;;;;;;;;;;;;;16.72;45.19;96566.31;7398385;19;1068;-71
2024/02/27 11:39:41;;;;;;;;;;;;;;;16.72;44.69;96566.31;7398286;19;1123;-73
2024/02/27 11:42:08;;;;;;;;;;;;;;;16.73;44.18;96565.34;7398151;19;1123;-71
2024/02/27 11:44:56;;;;;;;;;;;;;;;16.72;45.25;96566.31;7396792;19;1156;-68
2024/02/27 11:47:35;;;;;;;;;;;;;;;16.71;44.80;96564.63;7396271;19;1841;-65
2024/02/27 11:50:06;;;;;;;;;;;;;;;16.51;44.55;96564.06;7398124;19;1166;-69
2024/02/27 11:52:35;;;;;;;;;;;;;;;16.60;45.48;96564.44;7397956;19;1076;-74
2024/02/27 11:55:11;;;;;;;;;;;;;;;16.78;44.16;96565.06;7398469;19;1035;-72
2024/02/27 11:57:39;;;;;;;;;;;;;;;16.87;43.64;96561.84;7397719;19;1132;-69
2024/02/27 12:00:12;;;;;;;;;;;;;;;16.88;44.50;96555.63;7398273;19;1008;-73
2024/02/27 12:02:40;;;;;;;;;;;;;;;16.90;43.67;96558.16;7397546;19;1012;-69
2024/02/27 12:05:09;;;;;;;;;;;;;;;16.83;45.05;96563.00;7397564;19;1028;-71
2024/02/27 12:07:37;;;;;;;;;;;;;;;16.85;44.14;96558.44;7395873;19;1854;-69
2024/02/27 12:10:14;;;;;;;;;;;;;;;16.92;44.34;96557.09;7398065;19;954;-66
2024/02/27 12:12:44;;;;;;;;;;;;;;;16.87;44.76;96550.44;7397277;19;1035;-68
2024/02/27 12:15:13;;;;;;;;;;;;;;;16.84;44.69;96556.75;7397280;19;1104;-74
2024/02/27 12:17:41;;;;;;;;;;;;;;;16.80;44.53;96555.28;7397110;19;1136;-69
2024/02/27 12:20:12;;;;;;;;;;;;;;;16.86;44.26;96561.94;7397473;19;1693;-74
2024/02/27 12:22:41;;;;;;;;;;;;;;;16.88;44.30;96555.63;7396950;19;1151;-70
2024/02/27 12:25:12;;;;;;;;;;;;;;;16.86;44.09;96556.66;7396948;19;1095;-67
2024/02/27 12:27:41;;;;;;;;;;;;;;;16.74;44.88;96563.56;7395251;19;1844;-67
2024/02/27 12:30:11;;;;;;;;;;;;;;;16.68;45.07;96559.53;7396730;19;1111;-68
2024/02/27 12:32:40;;;;;;;;;;;;;;;16.59;44.92;96558.31;7396642;19;1108;-66
2024/02/27 12:35:09;;;;;;;;;;;;;;;16.57;45.28;96565.47;7397304;19;1001;-72
2024/02/27 12:37:42;;;;;;;;;;;;;;;16.55;45.37;96557.66;7401794;19;1732;-70
2024/02/27 12:40:15;;;;;;;;;;;;;;;16.61;43.88;96556.41;7404779;19;942;-67
2024/02/27 12:42:44;;;;;;;;;;;;;;;16.58;43.60;96555.78;7403619;19;1099;-69
2024/02/27 12:45:13;;;;;;;;;;;;;;;16.59;43.90;96555.66;7404167;19;1017;-73
2024/02/27 12:47:43;;;;;;;;;;;;;;;16.64;43.84;96548.28;7401509;19;1846;-71
2024/02/27 12:50:12;;;;;;;;;;;;;;;16.68;44.54;96551.59;7403923;19;1063;-75
2024/02/27 12:52:42;;;;;;;;;;;;;;;16.68;43.29;96557.72;7404462;19;1036;-68
2024/02/27 12:55:15;;;;;;;;;;;;;;;16.61;44.22;96550.25;7403851;19;1659;-73
2024/02/27 12:57:44;;;;;;;;;;;;;;;16.75;44.51;96552.91;7404118;19;1035;-73
2024/02/27 13:00:14;;;;;;;;;;;;;;;16.81;40.79;96559.59;7403552;19;1336;-68
2024/02/27 13:02:43;;;;;;;;;;;;;;;16.68;41.69;96554.25;7403913;19;1859;-69
2024/02/27 13:05:13;;;;;;;;;;;;;;;16.59;38.81;96549.53;7403538;19;1077;-67
2024/02/27 13:07:41;;;;;;;;;;;;;;;16.37;40.03;96549.06;7401229;19;1842;-68
2024/02/27 13:10:11;;;;;;;;;;;;;;;16.20;39.44;96547.47;7403741;19;1946;-73
2024/02/27 13:12:42;;;;;;;;;;;;;;;16.05;40.29;96541.34;7403267;19;1009;-69
2024/02/27 13:15:11;;;;;;;;;;;;;;;16.00;40.99;96543.38;7403242;19;1175;-69
2024/02/27 13:17:40;;;;;;;;;;;;;;;15.86;41.84;96537.09;7403641;19;1154;-68
2024/02/27 13:20:09;;;;;;;;;;;;;;;15.97;43.65;96533.88;7403319;19;1921;-72